sensor_id;sensor_type;location;lat;lon;timestamp;P1;durP1;ratioP1;P2;durP2;ratioP2
55037;SDS011;40937;53.594;10.034;2023-08-01T00:01:19;3.00;;;2.60;;
55037;SDS011;40937;53.594;10.034;2023-08-01T00:03:46;2.38;;;2.22;;
55037;SDS011;40937;53.594;10.034;2023-08-01T00:06:14;2.72;;;2.55;;
55037;SDS011;40937;53.594;10.034;2023-08-01T00:08:41;2.92;;;2.53;;
55037;SDS011;40937;53.594;10.034;2023-08-01T00:11:08;2.65;;;2.53;;
55037;SDS011;40937;53.594;10.034;2023-08-01T00:13:37;3.60;;;2.58;;
55037;SDS011;40937;53.594;10.034;2023-08-01T00:16:04;2.50;;;2.30;;
55037;SDS011;40937;53.594;10.034;2023-08-01T00:18:33;1.90;;;1.80;;
55037;SDS011;40937;53.594;10.034;2023-08-01T00:21:00;2.78;;;2.00;;
55037;SDS011;40937;53.594;10.034;2023-08-01T00:23:27;2.33;;;1.92;;
55037;SDS011;40937;53.594;10.034;2023-08-01T00:25:55;2.38;;;2.17;;
55037;SDS011;40937;53.594;10.034;2023-08-01T00:28:22;1.70;;;1.60;;
55037;SDS011;40937;53.594;10.034;2023-08-01T00:30:50;1.70;;;1.60;;
55037;SDS011;40937;53.594;10.034;2023-08-01T00:33:17;1.88;;;1.77;;
55037;SDS011;40937;53.594;10.034;2023-08-01T00:35:52;3.50;;;1.85;;
55037;SDS011;40937;53.594;10.034;2023-08-01T00:38:20;1.70;;;1.60;;
55037;SDS011;40937;53.594;10.034;2023-08-01T00:40:47;2.97;;;1.75;;
55037;SDS011;40937;53.594;10.034;2023-08-01T00:43:16;1.80;;;1.70;;
55037;SDS011;40937;53.594;10.034;2023-08-01T00:45:43;1.83;;;1.73;;
55037;SDS011;40937;53.594;10.034;2023-08-01T00:48:11;1.63;;;1.55;;
55037;SDS011;40937;53.594;10.034;2023-08-01T00:50:39;1.85;;;1.75;;
55037;SDS011;40937;53.594;10.034;2023-08-01T00:53:08;2.00;;;1.90;;
55037;SDS011;40937;53.594;10.034;2023-08-01T00:55:35;1.75;;;1.63;;
55037;SDS011;40937;53.594;10.034;2023-08-01T00:58:03;1.80;;;1.70;;
55037;SDS011;40937;53.594;10.034;2023-08-01T01:00:30;1.70;;;1.60;;
55037;SDS011;40937;53.594;10.034;2023-08-01T01:02:58;1.80;;;1.70;;
55037;SDS011;40937;53.594;10.034;2023-08-01T01:05:26;3.15;;;1.58;;
55037;SDS011;40937;53.594;10.034;2023-08-01T01:07:55;2.25;;;1.60;;
55037;SDS011;40937;53.594;10.034;2023-08-01T01:10:24;1.83;;;1.73;;
55037;SDS011;40937;53.594;10.034;2023-08-01T01:12:51;2.03;;;1.88;;
55037;SDS011;40937;53.594;10.034;2023-08-01T01:15:19;4.35;;;2.00;;
55037;SDS011;40937;53.594;10.034;2023-08-01T01:17:46;2.22;;;1.95;;
55037;SDS011;40937;53.594;10.034;2023-08-01T01:20:13;1.75;;;1.65;;
55037;SDS011;40937;53.594;10.034;2023-08-01T01:22:42;4.78;;;1.98;;
55037;SDS011;40937;53.594;10.034;2023-08-01T01:25:11;2.25;;;2.15;;
55037;SDS011;40937;53.594;10.034;2023-08-01T01:27:39;2.47;;;2.28;;
55037;SDS011;40937;53.594;10.034;2023-08-01T01:30:07;3.80;;;2.45;;
55037;SDS011;40937;53.594;10.034;2023-08-01T01:32:35;2.75;;;2.55;;
55037;SDS011;40937;53.594;10.034;2023-08-01T01:35:03;4.10;;;3.08;;
55037;SDS011;40937;53.594;10.034;2023-08-01T01:37:30;2.90;;;2.80;;
55037;SDS011;40937;53.594;10.034;2023-08-01T01:40:00;3.40;;;3.10;;
55037;SDS011;40937;53.594;10.034;2023-08-01T01:42:27;3.30;;;3.10;;
55037;SDS011;40937;53.594;10.034;2023-08-01T01:44:54;3.60;;;3.10;;
55037;SDS011;40937;53.594;10.034;2023-08-01T01:47:22;3.55;;;3.25;;
55037;SDS011;40937;53.594;10.034;2023-08-01T01:49:49;4.43;;;3.42;;
55037;SDS011;40937;53.594;10.034;2023-08-01T01:52:16;3.97;;;3.67;;
55037;SDS011;40937;53.594;10.034;2023-08-01T01:54:44;3.70;;;3.50;;
55037;SDS011;40937;53.594;10.034;2023-08-01T01:57:12;4.70;;;4.32;;
55037;SDS011;40937;53.594;10.034;2023-08-01T01:59:40;3.63;;;3.33;;
55037;SDS011;40937;53.594;10.034;2023-08-01T02:02:07;5.45;;;3.92;;
55037;SDS011;40937;53.594;10.034;2023-08-01T02:04:34;8.30;;;4.43;;
55037;SDS011;40937;53.594;10.034;2023-08-01T02:07:02;4.03;;;3.72;;
55037;SDS011;40937;53.594;10.034;2023-08-01T02:09:29;4.70;;;4.00;;
55037;SDS011;40937;53.594;10.034;2023-08-01T02:11:57;5.35;;;3.70;;
55037;SDS011;40937;53.594;10.034;2023-08-01T02:14:26;4.53;;;4.13;;
55037;SDS011;40937;53.594;10.034;2023-08-01T02:16:53;5.13;;;4.72;;
55037;SDS011;40937;53.594;10.034;2023-08-01T02:19:20;5.28;;;4.65;;
55037;SDS011;40937;53.594;10.034;2023-08-01T02:21:48;5.30;;;4.60;;
55037;SDS011;40937;53.594;10.034;2023-08-01T02:24:15;7.18;;;5.15;;
55037;SDS011;40937;53.594;10.034;2023-08-01T02:26:42;6.22;;;5.65;;
55037;SDS011;40937;53.594;10.034;2023-08-01T02:29:10;5.47;;;5.00;;
55037;SDS011;40937;53.594;10.034;2023-08-01T02:31:38;6.47;;;5.10;;
55037;SDS011;40937;53.594;10.034;2023-08-01T02:34:06;5.07;;;4.43;;
55037;SDS011;40937;53.594;10.034;2023-08-01T02:36:33;5.57;;;5.07;;
55037;SDS011;40937;53.594;10.034;2023-08-01T02:39:00;5.80;;;5.40;;
55037;SDS011;40937;53.594;10.034;2023-08-01T02:41:27;5.38;;;4.78;;
55037;SDS011;40937;53.594;10.034;2023-08-01T02:43:55;5.82;;;5.40;;
55037;SDS011;40937;53.594;10.034;2023-08-01T02:46:23;5.07;;;4.78;;
55037;SDS011;40937;53.594;10.034;2023-08-01T02:48:51;5.43;;;5.00;;
55037;SDS011;40937;53.594;10.034;2023-08-01T02:51:19;6.30;;;4.82;;
55037;SDS011;40937;53.594;10.034;2023-08-01T02:53:46;5.32;;;5.00;;
55037;SDS011;40937;53.594;10.034;2023-08-01T02:56:13;6.28;;;5.53;;
55037;SDS011;40937;53.594;10.034;2023-08-01T02:58:41;5.65;;;5.15;;
55037;SDS011;40937;53.594;10.034;2023-08-01T03:01:08;5.53;;;5.03;;
55037;SDS011;40937;53.594;10.034;2023-08-01T03:03:36;7.00;;;5.85;;
55037;SDS011;40937;53.594;10.034;2023-08-01T03:06:05;6.53;;;6.03;;
55037;SDS011;40937;53.594;10.034;2023-08-01T03:08:32;5.95;;;5.43;;
55037;SDS011;40937;53.594;10.034;2023-08-01T03:10:59;6.80;;;6.10;;
55037;SDS011;40937;53.594;10.034;2023-08-01T03:13:27;9.82;;;6.90;;
55037;SDS011;40937;53.594;10.034;2023-08-01T03:15:55;7.55;;;6.97;;
55037;SDS011;40937;53.594;10.034;2023-08-01T03:18:22;7.22;;;6.65;;
55037;SDS011;40937;53.594;10.034;2023-08-01T03:20:50;7.65;;;6.95;;
55037;SDS011;40937;53.594;10.034;2023-08-01T03:23:18;7.00;;;6.45;;
55037;SDS011;40937;53.594;10.034;2023-08-01T03:25:46;7.57;;;6.45;;
55037;SDS011;40937;53.594;10.034;2023-08-01T03:28:13;5.90;;;5.32;;
55037;SDS011;40937;53.594;10.034;2023-08-01T03:30:41;8.85;;;6.43;;
55037;SDS011;40937;53.594;10.034;2023-08-01T03:33:09;8.10;;;6.45;;
55037;SDS011;40937;53.594;10.034;2023-08-01T03:35:36;7.30;;;6.30;;
55037;SDS011;40937;53.594;10.034;2023-08-01T03:38:04;7.25;;;6.60;;
55037;SDS011;40937;53.594;10.034;2023-08-01T03:40:32;6.50;;;5.90;;
55037;SDS011;40937;53.594;10.034;2023-08-01T03:43:01;6.60;;;6.13;;
55037;SDS011;40937;53.594;10.034;2023-08-01T03:45:28;6.43;;;5.85;;
55037;SDS011;40937;53.594;10.034;2023-08-01T03:47:56;6.78;;;6.22;;
55037;SDS011;40937;53.594;10.034;2023-08-01T03:50:24;15.57;;;6.53;;
55037;SDS011;40937;53.594;10.034;2023-08-01T03:52:52;7.18;;;6.50;;
55037;SDS011;40937;53.594;10.034;2023-08-01T03:55:19;9.30;;;6.88;;
55037;SDS011;40937;53.594;10.034;2023-08-01T03:57:48;9.35;;;7.22;;
55037;SDS011;40937;53.594;10.034;2023-08-01T04:00:15;8.30;;;7.10;;
55037;SDS011;40937;53.594;10.034;2023-08-01T04:02:44;8.45;;;6.43;;
55037;SDS011;40937;53.594;10.034;2023-08-01T04:05:11;7.75;;;6.63;;
55037;SDS011;40937;53.594;10.034;2023-08-01T04:07:38;7.57;;;6.43;;
55037;SDS011;40937;53.594;10.034;2023-08-01T04:10:06;7.40;;;6.75;;
55037;SDS011;40937;53.594;10.034;2023-08-01T04:12:34;8.77;;;7.18;;
55037;SDS011;40937;53.594;10.034;2023-08-01T04:15:03;9.50;;;6.20;;
55037;SDS011;40937;53.594;10.034;2023-08-01T04:17:31;7.03;;;6.30;;
55037;SDS011;40937;53.594;10.034;2023-08-01T04:19:58;7.20;;;6.32;;
55037;SDS011;40937;53.594;10.034;2023-08-01T04:22:25;7.18;;;6.55;;
55037;SDS011;40937;53.594;10.034;2023-08-01T04:24:53;7.63;;;6.82;;
55037;SDS011;40937;53.594;10.034;2023-08-01T04:27:20;8.98;;;6.55;;
55037;SDS011;40937;53.594;10.034;2023-08-01T04:29:47;8.48;;;6.75;;
55037;SDS011;40937;53.594;10.034;2023-08-01T04:32:16;6.97;;;6.35;;
55037;SDS011;40937;53.594;10.034;2023-08-01T04:34:43;6.93;;;6.32;;
55037;SDS011;40937;53.594;10.034;2023-08-01T04:37:10;12.65;;;7.05;;
55037;SDS011;40937;53.594;10.034;2023-08-01T04:39:38;12.90;;;7.82;;
55037;SDS011;40937;53.594;10.034;2023-08-01T04:42:05;8.73;;;7.38;;
55037;SDS011;40937;53.594;10.034;2023-08-01T04:44:33;8.65;;;7.00;;
55037;SDS011;40937;53.594;10.034;2023-08-01T04:47:00;8.35;;;7.57;;
55037;SDS011;40937;53.594;10.034;2023-08-01T04:49:29;12.13;;;7.20;;
55037;SDS011;40937;53.594;10.034;2023-08-01T04:51:56;12.23;;;7.68;;
55037;SDS011;40937;53.594;10.034;2023-08-01T04:54:23;7.88;;;7.20;;
55037;SDS011;40937;53.594;10.034;2023-08-01T04:56:51;8.50;;;7.18;;
55037;SDS011;40937;53.594;10.034;2023-08-01T04:59:18;9.75;;;7.70;;
55037;SDS011;40937;53.594;10.034;2023-08-01T05:01:45;7.22;;;6.32;;
55037;SDS011;40937;53.594;10.034;2023-08-01T05:04:13;8.90;;;7.07;;
55037;SDS011;40937;53.594;10.034;2023-08-01T05:06:41;9.73;;;8.20;;
55037;SDS011;40937;53.594;10.034;2023-08-01T05:09:09;15.68;;;6.80;;
55037;SDS011;40937;53.594;10.034;2023-08-01T05:11:36;7.55;;;6.80;;
55037;SDS011;40937;53.594;10.034;2023-08-01T05:14:03;7.85;;;6.88;;
55037;SDS011;40937;53.594;10.034;2023-08-01T05:16:31;9.25;;;7.47;;
55037;SDS011;40937;53.594;10.034;2023-08-01T05:18:58;8.02;;;6.65;;
55037;SDS011;40937;53.594;10.034;2023-08-01T05:21:26;7.45;;;6.72;;
55037;SDS011;40937;53.594;10.034;2023-08-01T05:23:54;9.75;;;7.13;;
55037;SDS011;40937;53.594;10.034;2023-08-01T05:26:22;7.45;;;6.65;;
55037;SDS011;40937;53.594;10.034;2023-08-01T05:28:49;10.07;;;7.28;;
55037;SDS011;40937;53.594;10.034;2023-08-01T05:31:16;11.60;;;6.72;;
55037;SDS011;40937;53.594;10.034;2023-08-01T05:33:43;13.95;;;6.97;;
55037;SDS011;40937;53.594;10.034;2023-08-01T05:36:11;7.50;;;6.80;;
55037;SDS011;40937;53.594;10.034;2023-08-01T05:38:38;7.55;;;6.35;;
55037;SDS011;40937;53.594;10.034;2023-08-01T05:41:07;10.60;;;7.30;;
55037;SDS011;40937;53.594;10.034;2023-08-01T05:43:34;11.65;;;7.07;;
55037;SDS011;40937;53.594;10.034;2023-08-01T05:46:01;8.23;;;6.82;;
55037;SDS011;40937;53.594;10.034;2023-08-01T05:48:29;8.52;;;5.82;;
55037;SDS011;40937;53.594;10.034;2023-08-01T05:50:56;7.93;;;6.07;;
55037;SDS011;40937;53.594;10.034;2023-08-01T05:53:24;6.30;;;5.60;;
55037;SDS011;40937;53.594;10.034;2023-08-01T05:55:52;7.68;;;5.53;;
55037;SDS011;40937;53.594;10.034;2023-08-01T05:58:22;11.00;;;5.43;;
55037;SDS011;40937;53.594;10.034;2023-08-01T06:00:49;6.82;;;5.25;;
55037;SDS011;40937;53.594;10.034;2023-08-01T06:03:16;5.22;;;4.18;;
55037;SDS011;40937;53.594;10.034;2023-08-01T06:05:44;5.70;;;4.35;;
55037;SDS011;40937;53.594;10.034;2023-08-01T06:08:11;5.72;;;4.30;;
55037;SDS011;40937;53.594;10.034;2023-08-01T06:10:41;7.05;;;4.93;;
55037;SDS011;40937;53.594;10.034;2023-08-01T06:13:08;8.90;;;5.35;;
55037;SDS011;40937;53.594;10.034;2023-08-01T06:15:37;8.07;;;4.38;;
55037;SDS011;40937;53.594;10.034;2023-08-01T06:18:04;9.13;;;4.90;;
55037;SDS011;40937;53.594;10.034;2023-08-01T06:20:31;6.65;;;4.90;;
55037;SDS011;40937;53.594;10.034;2023-08-01T06:22:59;7.85;;;4.32;;
55037;SDS011;40937;53.594;10.034;2023-08-01T06:25:26;6.03;;;4.78;;
55037;SDS011;40937;53.594;10.034;2023-08-01T06:27:53;9.63;;;4.57;;
55037;SDS011;40937;53.594;10.034;2023-08-01T06:30:20;10.25;;;4.43;;
55037;SDS011;40937;53.594;10.034;2023-08-01T06:32:49;5.95;;;4.22;;
55037;SDS011;40937;53.594;10.034;2023-08-01T06:35:16;9.65;;;4.60;;
55037;SDS011;40937;53.594;10.034;2023-08-01T06:37:44;9.60;;;4.32;;
55037;SDS011;40937;53.594;10.034;2023-08-01T06:40:11;8.32;;;4.47;;
55037;SDS011;40937;53.594;10.034;2023-08-01T06:42:39;13.10;;;4.70;;
55037;SDS011;40937;53.594;10.034;2023-08-01T06:45:06;7.50;;;4.35;;
55037;SDS011;40937;53.594;10.034;2023-08-01T06:47:34;11.60;;;4.30;;
55037;SDS011;40937;53.594;10.034;2023-08-01T06:50:02;7.00;;;4.13;;
55037;SDS011;40937;53.594;10.034;2023-08-01T06:52:30;9.25;;;4.00;;
55037;SDS011;40937;53.594;10.034;2023-08-01T06:54:57;9.15;;;4.03;;
55037;SDS011;40937;53.594;10.034;2023-08-01T06:57:25;7.35;;;4.00;;
55037;SDS011;40937;53.594;10.034;2023-08-01T06:59:52;5.28;;;3.63;;
55037;SDS011;40937;53.594;10.034;2023-08-01T07:02:19;12.23;;;3.67;;
55037;SDS011;40937;53.594;10.034;2023-08-01T07:04:47;6.95;;;3.03;;
55037;SDS011;40937;53.594;10.034;2023-08-01T07:07:15;22.55;;;4.40;;
55037;SDS011;40937;53.594;10.034;2023-08-01T07:09:42;17.92;;;4.30;;
55037;SDS011;40937;53.594;10.034;2023-08-01T07:12:10;11.23;;;4.38;;
55037;SDS011;40937;53.594;10.034;2023-08-01T07:14:37;6.07;;;3.78;;
55037;SDS011;40937;53.594;10.034;2023-08-01T07:17:04;8.48;;;3.70;;
55037;SDS011;40937;53.594;10.034;2023-08-01T07:19:31;7.45;;;3.20;;
55037;SDS011;40937;53.594;10.034;2023-08-01T07:22:00;11.95;;;3.63;;
55037;SDS011;40937;53.594;10.034;2023-08-01T07:24:29;6.38;;;3.30;;
55037;SDS011;40937;53.594;10.034;2023-08-01T07:26:56;10.32;;;3.42;;
55037;SDS011;40937;53.594;10.034;2023-08-01T07:29:23;5.00;;;3.33;;
55037;SDS011;40937;53.594;10.034;2023-08-01T07:31:50;6.85;;;3.30;;
55037;SDS011;40937;53.594;10.034;2023-08-01T07:34:18;7.72;;;3.20;;
55037;SDS011;40937;53.594;10.034;2023-08-01T07:36:49;6.30;;;3.40;;
55037;SDS011;40937;53.594;10.034;2023-08-01T07:39:17;7.50;;;3.10;;
55037;SDS011;40937;53.594;10.034;2023-08-01T07:41:45;8.07;;;3.10;;
55037;SDS011;40937;53.594;10.034;2023-08-01T07:44:13;7.20;;;3.05;;
55037;SDS011;40937;53.594;10.034;2023-08-01T07:46:40;5.00;;;3.40;;
55037;SDS011;40937;53.594;10.034;2023-08-01T07:49:07;11.27;;;4.15;;
55037;SDS011;40937;53.594;10.034;2023-08-01T07:51:35;5.60;;;3.53;;
55037;SDS011;40937;53.594;10.034;2023-08-01T07:54:02;6.68;;;3.90;;
55037;SDS011;40937;53.594;10.034;2023-08-01T07:56:29;4.78;;;3.40;;
55037;SDS011;40937;53.594;10.034;2023-08-01T07:58:58;6.45;;;3.55;;
55037;SDS011;40937;53.594;10.034;2023-08-01T08:01:26;4.35;;;3.30;;
55037;SDS011;40937;53.594;10.034;2023-08-01T08:03:53;5.07;;;3.75;;
55037;SDS011;40937;53.594;10.034;2023-08-01T08:06:20;7.03;;;3.47;;
55037;SDS011;40937;53.594;10.034;2023-08-01T08:08:49;9.95;;;3.90;;
55037;SDS011;40937;53.594;10.034;2023-08-01T08:11:16;7.43;;;3.30;;
55037;SDS011;40937;53.594;10.034;2023-08-01T08:13:44;7.93;;;3.40;;
55037;SDS011;40937;53.594;10.034;2023-08-01T08:16:12;3.97;;;3.22;;
55037;SDS011;40937;53.594;10.034;2023-08-01T08:18:40;6.05;;;3.70;;
55037;SDS011;40937;53.594;10.034;2023-08-01T08:21:08;5.05;;;3.30;;
55037;SDS011;40937;53.594;10.034;2023-08-01T08:23:35;10.05;;;3.65;;
55037;SDS011;40937;53.594;10.034;2023-08-01T08:26:03;6.22;;;3.53;;
55037;SDS011;40937;53.594;10.034;2023-08-01T08:28:31;7.03;;;3.05;;
55037;SDS011;40937;53.594;10.034;2023-08-01T08:31:00;8.85;;;4.57;;
55037;SDS011;40937;53.594;10.034;2023-08-01T08:33:30;5.80;;;3.65;;
55037;SDS011;40937;53.594;10.034;2023-08-01T08:35:57;5.20;;;3.53;;
55037;SDS011;40937;53.594;10.034;2023-08-01T08:38:25;8.88;;;3.88;;
55037;SDS011;40937;53.594;10.034;2023-08-01T08:41:01;5.85;;;3.83;;
55037;SDS011;40937;53.594;10.034;2023-08-01T08:43:35;7.22;;;4.03;;
55037;SDS011;40937;53.594;10.034;2023-08-01T08:46:03;9.27;;;4.25;;
55037;SDS011;40937;53.594;10.034;2023-08-01T08:48:33;8.50;;;4.22;;
55037;SDS011;40937;53.594;10.034;2023-08-01T08:51:01;9.15;;;3.83;;
55037;SDS011;40937;53.594;10.034;2023-08-01T08:53:30;13.63;;;5.00;;
55037;SDS011;40937;53.594;10.034;2023-08-01T08:55:58;8.85;;;3.40;;
55037;SDS011;40937;53.594;10.034;2023-08-01T08:58:26;4.82;;;4.13;;
55037;SDS011;40937;53.594;10.034;2023-08-01T09:00:55;8.57;;;4.03;;
55037;SDS011;40937;53.594;10.034;2023-08-01T09:03:23;11.38;;;4.00;;
55037;SDS011;40937;53.594;10.034;2023-08-01T09:05:54;9.75;;;4.35;;
55037;SDS011;40937;53.594;10.034;2023-08-01T09:08:29;6.35;;;4.30;;
55037;SDS011;40937;53.594;10.034;2023-08-01T09:11:01;7.53;;;4.57;;
55037;SDS011;40937;53.594;10.034;2023-08-01T09:13:30;7.55;;;4.65;;
55037;SDS011;40937;53.594;10.034;2023-08-01T09:15:57;7.38;;;4.53;;
55037;SDS011;40937;53.594;10.034;2023-08-01T09:18:25;6.82;;;4.07;;
55037;SDS011;40937;53.594;10.034;2023-08-01T09:20:55;7.03;;;4.07;;
55037;SDS011;40937;53.594;10.034;2023-08-01T09:23:27;6.50;;;3.60;;
55037;SDS011;40937;53.594;10.034;2023-08-01T09:25:56;3.88;;;3.20;;
55037;SDS011;40937;53.594;10.034;2023-08-01T09:28:24;3.67;;;3.30;;
55037;SDS011;40937;53.594;10.034;2023-08-01T09:30:53;4.15;;;3.40;;
55037;SDS011;40937;53.594;10.034;2023-08-01T09:33:23;3.35;;;3.03;;
55037;SDS011;40937;53.594;10.034;2023-08-01T09:35:50;5.72;;;3.55;;
55037;SDS011;40937;53.594;10.034;2023-08-01T09:38:19;5.93;;;2.75;;
55037;SDS011;40937;53.594;10.034;2023-08-01T09:40:47;3.20;;;2.42;;
55037;SDS011;40937;53.594;10.034;2023-08-01T09:43:15;4.32;;;3.30;;
55037;SDS011;40937;53.594;10.034;2023-08-01T09:45:49;5.32;;;2.97;;
55037;SDS011;40937;53.594;10.034;2023-08-01T09:48:23;3.33;;;2.78;;
55037;SDS011;40937;53.594;10.034;2023-08-01T09:50:52;3.92;;;2.65;;
55037;SDS011;40937;53.594;10.034;2023-08-01T09:53:32;4.75;;;2.85;;
55037;SDS011;40937;53.594;10.034;2023-08-01T09:55:59;10.10;;;3.40;;
55037;SDS011;40937;53.594;10.034;2023-08-01T09:58:28;11.85;;;3.13;;
55037;SDS011;40937;53.594;10.034;2023-08-01T10:00:59;6.60;;;2.55;;
55037;SDS011;40937;53.594;10.034;2023-08-01T10:03:27;3.85;;;2.20;;
55037;SDS011;40937;53.594;10.034;2023-08-01T10:05:55;4.47;;;2.42;;
55037;SDS011;40937;53.594;10.034;2023-08-01T10:08:23;2.53;;;2.33;;
55037;SDS011;40937;53.594;10.034;2023-08-01T10:10:52;7.63;;;2.95;;
55037;SDS011;40937;53.594;10.034;2023-08-01T10:13:23;1.98;;;1.75;;
55037;SDS011;40937;53.594;10.034;2023-08-01T10:15:51;5.53;;;2.38;;
55037;SDS011;40937;53.594;10.034;2023-08-01T10:18:18;4.28;;;2.42;;
55037;SDS011;40937;53.594;10.034;2023-08-01T10:20:46;2.17;;;1.85;;
55037;SDS011;40937;53.594;10.034;2023-08-01T10:23:15;2.55;;;2.10;;
55037;SDS011;40937;53.594;10.034;2023-08-01T10:25:43;4.63;;;3.13;;
55037;SDS011;40937;53.594;10.034;2023-08-01T10:28:13;4.68;;;2.47;;
55037;SDS011;40937;53.594;10.034;2023-08-01T10:30:40;6.07;;;2.10;;
55037;SDS011;40937;53.594;10.034;2023-08-01T10:33:08;2.50;;;2.08;;
55037;SDS011;40937;53.594;10.034;2023-08-01T10:35:39;2.20;;;2.00;;
55037;SDS011;40937;53.594;10.034;2023-08-01T10:38:07;3.38;;;2.03;;
55037;SDS011;40937;53.594;10.034;2023-08-01T10:40:36;2.28;;;1.90;;
55037;SDS011;40937;53.594;10.034;2023-08-01T10:43:04;10.40;;;2.13;;
55037;SDS011;40937;53.594;10.034;2023-08-01T10:45:33;3.75;;;2.20;;
55037;SDS011;40937;53.594;10.034;2023-08-01T10:48:07;2.22;;;1.83;;
55037;SDS011;40937;53.594;10.034;2023-08-01T10:50:35;1.90;;;1.70;;
55037;SDS011;40937;53.594;10.034;2023-08-01T10:53:02;3.38;;;1.77;;
55037;SDS011;40937;53.594;10.034;2023-08-01T10:55:41;6.70;;;2.08;;
55037;SDS011;40937;53.594;10.034;2023-08-01T10:58:09;1.90;;;1.73;;
55037;SDS011;40937;53.594;10.034;2023-08-01T11:00:38;2.13;;;1.33;;
55037;SDS011;40937;53.594;10.034;2023-08-01T11:03:05;1.85;;;1.55;;
55037;SDS011;40937;53.594;10.034;2023-08-01T11:05:32;3.42;;;1.45;;
55037;SDS011;40937;53.594;10.034;2023-08-01T11:08:00;2.75;;;1.45;;
55037;SDS011;40937;53.594;10.034;2023-08-01T11:10:30;2.05;;;1.42;;
55037;SDS011;40937;53.594;10.034;2023-08-01T11:12:59;2.25;;;1.38;;
55037;SDS011;40937;53.594;10.034;2023-08-01T11:15:26;1.73;;;1.00;;
55037;SDS011;40937;53.594;10.034;2023-08-01T11:17:55;6.47;;;1.40;;
55037;SDS011;40937;53.594;10.034;2023-08-01T11:20:23;3.72;;;1.90;;
55037;SDS011;40937;53.594;10.034;2023-08-01T11:22:53;2.72;;;1.60;;
55037;SDS011;40937;53.594;10.034;2023-08-01T11:25:31;2.53;;;1.73;;
55037;SDS011;40937;53.594;10.034;2023-08-01T11:28:01;3.13;;;1.52;;
55037;SDS011;40937;53.594;10.034;2023-08-01T11:30:31;3.10;;;1.33;;
55037;SDS011;40937;53.594;10.034;2023-08-01T11:32:59;2.92;;;1.67;;
55037;SDS011;40937;53.594;10.034;2023-08-01T11:35:28;3.20;;;1.63;;
55037;SDS011;40937;53.594;10.034;2023-08-01T11:37:55;3.10;;;1.40;;
55037;SDS011;40937;53.594;10.034;2023-08-01T11:40:24;3.58;;;1.48;;
55037;SDS011;40937;53.594;10.034;2023-08-01T11:42:53;4.50;;;1.50;;
55037;SDS011;40937;53.594;10.034;2023-08-01T11:45:23;1.48;;;1.10;;
55037;SDS011;40937;53.594;10.034;2023-08-01T11:47:51;3.25;;;1.38;;
55037;SDS011;40937;53.594;10.034;2023-08-01T11:50:23;2.17;;;1.20;;
55037;SDS011;40937;53.594;10.034;2023-08-01T11:55:20;1.30;;;0.90;;
55037;SDS011;40937;53.594;10.034;2023-08-01T11:57:52;1.15;;;0.88;;
55037;SDS011;40937;53.594;10.034;2023-08-01T12:00:21;2.13;;;1.15;;
55037;SDS011;40937;53.594;10.034;2023-08-01T12:02:49;1.30;;;0.93;;
55037;SDS011;40937;53.594;10.034;2023-08-01T12:05:24;2.65;;;1.00;;
55037;SDS011;40937;53.594;10.034;2023-08-01T12:07:52;1.20;;;1.10;;
55037;SDS011;40937;53.594;10.034;2023-08-01T12:10:20;0.90;;;0.90;;
55037;SDS011;40937;53.594;10.034;2023-08-01T12:12:47;2.80;;;0.93;;
55037;SDS011;40937;53.594;10.034;2023-08-01T12:15:15;4.10;;;2.10;;
55037;SDS011;40937;53.594;10.034;2023-08-01T12:17:42;1.00;;;1.00;;
55037;SDS011;40937;53.594;10.034;2023-08-01T12:20:10;1.00;;;0.88;;
55037;SDS011;40937;53.594;10.034;2023-08-01T12:22:39;1.10;;;1.00;;
55037;SDS011;40937;53.594;10.034;2023-08-01T12:25:07;2.03;;;1.27;;
55037;SDS011;40937;53.594;10.034;2023-08-01T12:27:35;2.45;;;1.30;;
55037;SDS011;40937;53.594;10.034;2023-08-01T12:30:02;0.80;;;0.80;;
55037;SDS011;40937;53.594;10.034;2023-08-01T12:32:30;0.88;;;0.88;;
55037;SDS011;40937;53.594;10.034;2023-08-01T12:34:57;1.92;;;0.90;;
55037;SDS011;40937;53.594;10.034;2023-08-01T12:37:25;1.80;;;0.90;;
55037;SDS011;40937;53.594;10.034;2023-08-01T12:39:53;2.08;;;1.08;;
55037;SDS011;40937;53.594;10.034;2023-08-01T12:42:21;3.80;;;0.90;;
55037;SDS011;40937;53.594;10.034;2023-08-01T12:44:48;1.90;;;1.20;;
55037;SDS011;40937;53.594;10.034;2023-08-01T12:47:15;4.53;;;1.35;;
55037;SDS011;40937;53.594;10.034;2023-08-01T12:49:44;1.25;;;0.73;;
55037;SDS011;40937;53.594;10.034;2023-08-01T12:52:21;2.08;;;1.27;;
55037;SDS011;40937;53.594;10.034;2023-08-01T12:54:49;1.08;;;1.00;;
55037;SDS011;40937;53.594;10.034;2023-08-01T12:57:18;0.82;;;0.82;;
55037;SDS011;40937;53.594;10.034;2023-08-01T12:59:45;1.77;;;1.40;;
55037;SDS011;40937;53.594;10.034;2023-08-01T13:02:14;2.58;;;1.15;;
55037;SDS011;40937;53.594;10.034;2023-08-01T13:04:41;2.00;;;1.52;;
55037;SDS011;40937;53.594;10.034;2023-08-01T13:07:09;2.63;;;1.52;;
55037;SDS011;40937;53.594;10.034;2023-08-01T13:09:36;1.80;;;1.40;;
55037;SDS011;40937;53.594;10.034;2023-08-01T13:12:04;1.83;;;1.02;;
55037;SDS011;40937;53.594;10.034;2023-08-01T13:14:33;2.30;;;1.30;;
55037;SDS011;40937;53.594;10.034;2023-08-01T13:17:01;1.73;;;1.20;;
55037;SDS011;40937;53.594;10.034;2023-08-01T13:19:29;1.30;;;1.20;;
55037;SDS011;40937;53.594;10.034;2023-08-01T13:21:56;1.77;;;1.10;;
55037;SDS011;40937;53.594;10.034;2023-08-01T13:24:24;1.13;;;0.90;;
55037;SDS011;40937;53.594;10.034;2023-08-01T13:26:51;1.98;;;0.90;;
55037;SDS011;40937;53.594;10.034;2023-08-01T13:29:18;1.42;;;0.98;;
55037;SDS011;40937;53.594;10.034;2023-08-01T13:31:47;2.35;;;1.38;;
55037;SDS011;40937;53.594;10.034;2023-08-01T13:34:15;4.93;;;1.27;;
55037;SDS011;40937;53.594;10.034;2023-08-01T13:36:43;1.20;;;1.10;;
55037;SDS011;40937;53.594;10.034;2023-08-01T13:39:10;1.92;;;0.90;;
55037;SDS011;40937;53.594;10.034;2023-08-01T13:41:38;1.80;;;1.25;;
55037;SDS011;40937;53.594;10.034;2023-08-01T13:44:05;2.42;;;1.00;;
55037;SDS011;40937;53.594;10.034;2023-08-01T13:46:32;1.60;;;1.10;;
55037;SDS011;40937;53.594;10.034;2023-08-01T13:49:01;2.85;;;1.00;;
55037;SDS011;40937;53.594;10.034;2023-08-01T13:51:30;1.60;;;0.98;;
55037;SDS011;40937;53.594;10.034;2023-08-01T13:53:58;2.17;;;1.20;;
55037;SDS011;40937;53.594;10.034;2023-08-01T13:56:25;2.08;;;1.05;;
55037;SDS011;40937;53.594;10.034;2023-08-01T13:58:53;3.47;;;1.08;;
55037;SDS011;40937;53.594;10.034;2023-08-01T14:01:20;3.33;;;1.20;;
55037;SDS011;40937;53.594;10.034;2023-08-01T14:03:47;3.45;;;1.17;;
55037;SDS011;40937;53.594;10.034;2023-08-01T14:06:16;0.95;;;0.80;;
55037;SDS011;40937;53.594;10.034;2023-08-01T14:08:43;1.67;;;1.05;;
55037;SDS011;40937;53.594;10.034;2023-08-01T14:11:11;2.40;;;1.10;;
55037;SDS011;40937;53.594;10.034;2023-08-01T14:13:38;1.42;;;1.23;;
55037;SDS011;40937;53.594;10.034;2023-08-01T14:16:05;3.58;;;1.25;;
55037;SDS011;40937;53.594;10.034;2023-08-01T14:18:33;3.78;;;1.60;;
55037;SDS011;40937;53.594;10.034;2023-08-01T14:21:00;2.85;;;1.48;;
55037;SDS011;40937;53.594;10.034;2023-08-01T14:23:29;1.65;;;1.00;;
55037;SDS011;40937;53.594;10.034;2023-08-01T14:25:57;2.00;;;0.90;;
55037;SDS011;40937;53.594;10.034;2023-08-01T14:28:25;0.60;;;0.60;;
55037;SDS011;40937;53.594;10.034;2023-08-01T14:30:52;1.17;;;0.50;;
55037;SDS011;40937;53.594;10.034;2023-08-01T14:33:20;1.40;;;1.00;;
55037;SDS011;40937;53.594;10.034;2023-08-01T14:35:47;2.25;;;0.70;;
55037;SDS011;40937;53.594;10.034;2023-08-01T14:38:15;1.92;;;0.43;;
55037;SDS011;40937;53.594;10.034;2023-08-01T14:40:43;11.70;;;0.90;;